createdAt,value
2018-05-25T00:00:56.179Z,101097.56
2018-05-25T00:03:24.800Z,101103.89
2018-05-25T00:05:53.081Z,101102.31
2018-05-25T00:08:21.372Z,101103.57
2018-05-25T00:10:49.669Z,101111.98
2018-05-25T00:13:17.966Z,101112.91
2018-05-25T00:15:46.272Z,101107.17
2018-05-25T00:18:14.562Z,101113.57
2018-05-25T00:20:42.831Z,101111.53
2018-05-25T00:23:11.129Z,101107.67
2018-05-25T00:25:39.401Z,101110.43
2018-05-25T00:28:07.678Z,101112.79
2018-05-25T00:30:35.961Z,101108.36
2018-05-25T00:33:04.245Z,101113.99
2018-05-25T00:35:32.530Z,101110.72
2018-05-25T00:38:00.818Z,101115.70
2018-05-25T00:40:29.125Z,101111.30
2018-05-25T00:42:57.412Z,101110.50
2018-05-25T00:45:25.686Z,101103.30
2018-05-25T00:47:53.981Z,101106.70
2018-05-25T00:50:22.301Z,101107.73
2018-05-25T00:52:50.552Z,101113.63
2018-05-25T00:55:30.697Z,101106.80
2018-05-25T00:57:58.989Z,101108.13
2018-05-25T01:00:27.261Z,101103.86
2018-05-25T01:02:55.575Z,101100.23
2018-05-25T01:05:23.858Z,101104.69
2018-05-25T01:07:52.142Z,101100.88
2018-05-25T01:10:20.425Z,101096.66
2018-05-25T01:12:48.702Z,101095.16
2018-05-25T01:15:16.997Z,101108.84
2018-05-25T01:17:45.269Z,101089.86
2018-05-25T01:20:13.574Z,101101.56
2018-05-25T01:22:41.855Z,101095.64
2018-05-25T01:25:10.136Z,101103.82
2018-05-25T01:27:38.435Z,101100.48
2018-05-25T01:30:06.718Z,101101.15
2018-05-25T01:32:35.010Z,101088.98
2018-05-25T01:35:03.289Z,101089.33
2018-05-25T01:37:31.578Z,101094.45
2018-05-25T01:39:59.865Z,101085.85
2018-05-25T01:42:28.162Z,101094.55
2018-05-25T01:44:56.478Z,101083.66
2018-05-25T01:47:24.757Z,101079.47
2018-05-25T01:49:53.053Z,101077.18
2018-05-25T01:52:21.330Z,101085.72
2018-05-25T01:54:49.622Z,101081.66
2018-05-25T01:57:17.906Z,101085.42
2018-05-25T01:59:46.210Z,101075.02
2018-05-25T02:02:14.478Z,101076.72
2018-05-25T02:04:42.758Z,101091.59
2018-05-25T02:07:11.041Z,101088.63
2018-05-25T02:09:39.322Z,101084.77
2018-05-25T02:12:07.609Z,101086.41
2018-05-25T02:14:35.885Z,101085.52
2018-05-25T02:17:04.187Z,101095.94
2018-05-25T02:19:32.461Z,101089.84
2018-05-25T02:22:00.745Z,101086.19
2018-05-25T02:24:29.046Z,101082.56
2018-05-25T02:26:57.501Z,101082.09
2018-05-25T02:29:25.829Z,101083.05
2018-05-25T02:31:54.070Z,101083.70
2018-05-25T02:34:22.366Z,101083.01
2018-05-25T02:36:50.646Z,101083.67
2018-05-25T02:39:18.926Z,101078.05
2018-05-25T02:41:47.219Z,101082.19
2018-05-25T02:44:15.497Z,101082.72
2018-05-25T02:46:43.795Z,101088.33
2018-05-25T02:49:12.074Z,101086.85
2018-05-25T02:51:40.365Z,101088.48
2018-05-25T02:54:08.650Z,101081.95
2018-05-25T02:56:36.925Z,101088.25
2018-05-25T02:59:05.226Z,101086.40
2018-05-25T03:01:33.527Z,101085.47
2018-05-25T03:04:01.817Z,101092.13
2018-05-25T03:06:30.094Z,101088.20
2018-05-25T03:08:58.386Z,101079.38
2018-05-25T03:11:26.670Z,101081.14
2018-05-25T03:13:54.949Z,101085.29
2018-05-25T03:16:23.249Z,101092.84
2018-05-25T03:18:51.535Z,101085.45
2018-05-25T03:21:19.826Z,101086.59
2018-05-25T03:23:48.102Z,101081.30
2018-05-25T03:26:16.404Z,101079.97
2018-05-25T03:28:44.682Z,101083.83
2018-05-25T03:31:12.959Z,101086.83
2018-05-25T03:33:41.250Z,101089.88
2018-05-25T03:36:09.530Z,101089.08
2018-05-25T03:38:37.819Z,101092.73
2018-05-25T03:41:06.098Z,101091.13
2018-05-25T03:43:34.416Z,101092.97
2018-05-25T03:46:02.685Z,101090.70
2018-05-25T03:48:30.966Z,101098.03
2018-05-25T03:50:59.260Z,101095.03
2018-05-25T03:53:27.537Z,101095.46
2018-05-25T03:55:55.826Z,101094.44
2018-05-25T03:58:36.014Z,101104.94
2018-05-25T04:01:16.145Z,101101.48
2018-05-25T04:03:45.262Z,101110.98
2018-05-25T04:06:13.554Z,101111.78
2018-05-25T04:08:41.837Z,101112.86
2018-05-25T04:11:10.117Z,101115.35
2018-05-25T04:13:38.410Z,101115.84
2018-05-25T04:16:06.692Z,101120.33
2018-05-25T04:18:34.992Z,101115.57
2018-05-25T04:21:03.257Z,101116.43
2018-05-25T04:23:31.549Z,101120.36
2018-05-25T04:25:59.837Z,101126.39
2018-05-25T04:28:28.113Z,101123.44
2018-05-25T04:30:56.401Z,101125.59
2018-05-25T04:33:24.689Z,101127.42
2018-05-25T04:35:52.978Z,101123.22
2018-05-25T04:38:21.257Z,101127.25
2018-05-25T04:40:49.553Z,101131.00
2018-05-25T04:43:17.856Z,101128.41
2018-05-25T04:45:46.113Z,101130.52
2018-05-25T04:48:14.406Z,101133.22
2018-05-25T04:50:42.681Z,101134.48
2018-05-25T04:53:10.978Z,101135.69
2018-05-25T04:55:39.253Z,101135.75
2018-05-25T04:58:07.544Z,101134.84
2018-05-25T05:00:35.833Z,101129.30
2018-05-25T05:03:04.105Z,101129.04
2018-05-25T05:05:32.464Z,101130.70
2018-05-25T05:08:00.703Z,101129.92
2018-05-25T05:10:28.983Z,101135.64
2018-05-25T05:12:57.269Z,101133.69
2018-05-25T05:15:25.554Z,101130.98
2018-05-25T05:17:53.842Z,101141.02
2018-05-25T05:20:22.118Z,101134.58
2018-05-25T05:22:50.398Z,101140.90
2018-05-25T05:25:18.685Z,101137.23
2018-05-25T05:27:46.968Z,101122.55
2018-05-25T05:30:15.261Z,101132.02
2018-05-25T05:32:43.548Z,101129.06
2018-05-25T05:35:11.834Z,101132.55
2018-05-25T05:37:40.122Z,101139.67
2018-05-25T05:40:08.403Z,101129.06
2018-05-25T05:42:36.698Z,101138.33
2018-05-25T05:45:04.978Z,101137.70
2018-05-25T05:47:33.258Z,101137.22
2018-05-25T05:50:01.546Z,101139.88
2018-05-25T05:52:32.073Z,101138.08
2018-05-25T05:55:00.439Z,101133.22
2018-05-25T05:57:29.846Z,101134.84
2018-05-25T05:59:58.126Z,101146.89
2018-05-25T06:02:26.418Z,101145.47
2018-05-25T06:04:54.693Z,101146.39
2018-05-25T06:07:23.002Z,101147.94
2018-05-25T06:09:51.290Z,101152.23
2018-05-25T06:12:19.604Z,101153.48
2018-05-25T06:14:47.869Z,101148.31
2018-05-25T06:17:16.202Z,101150.02
2018-05-25T06:19:44.507Z,101150.25
2018-05-25T06:22:12.783Z,101150.92
2018-05-25T06:24:41.063Z,101151.80
2018-05-25T06:27:09.354Z,101148.69
2018-05-25T06:29:37.629Z,101146.51
2018-05-25T06:32:05.928Z,101147.11
2018-05-25T06:34:34.202Z,101149.19
2018-05-25T06:37:02.481Z,101153.09
2018-05-25T06:39:30.775Z,101151.16
2018-05-25T06:41:59.054Z,101155.84
2018-05-25T06:44:27.408Z,101157.62
2018-05-25T06:46:55.638Z,101158.45
2018-05-25T06:49:23.922Z,101163.26
2018-05-25T06:51:52.214Z,101161.17
2018-05-25T06:54:20.493Z,101168.59
2018-05-25T06:56:48.787Z,101169.41
2018-05-25T06:59:17.066Z,101172.83
2018-05-25T07:01:45.350Z,101170.11
2018-05-25T07:04:13.642Z,101174.52
2018-05-25T07:06:41.921Z,101177.55
2018-05-25T07:09:10.226Z,101169.14
2018-05-25T07:11:38.519Z,101169.39
2018-05-25T07:14:06.790Z,101170.25
2018-05-25T07:16:35.085Z,101170.87
2018-05-25T07:19:03.424Z,101181.12
2018-05-25T07:21:31.661Z,101179.52
2018-05-25T07:23:59.938Z,101175.05
2018-05-25T07:26:28.213Z,101180.80
2018-05-25T07:28:56.504Z,101188.52
2018-05-25T07:31:24.786Z,101192.36
2018-05-25T07:33:53.921Z,101192.75
2018-05-25T07:36:22.249Z,101198.98
2018-05-25T07:38:50.538Z,101201.24
2018-05-25T07:41:18.830Z,101203.27
2018-05-25T07:43:47.121Z,101199.20
2018-05-25T07:46:15.438Z,101204.64
2018-05-25T07:48:43.722Z,101199.48
2018-05-25T07:51:11.994Z,101194.48
2018-05-25T07:53:40.291Z,101185.30
2018-05-25T07:56:08.577Z,101186.44
2018-05-25T07:58:38.231Z,101183.02
2018-05-25T08:01:06.525Z,101181.73
2018-05-25T08:03:34.813Z,101185.27
2018-05-25T08:06:03.092Z,101184.12
2018-05-25T08:08:31.402Z,101185.19
2018-05-25T08:10:59.677Z,101194.69
2018-05-25T08:13:27.961Z,101191.69
2018-05-25T08:15:56.262Z,101198.80
2018-05-25T08:18:24.562Z,101192.61
2018-05-25T08:20:52.830Z,101186.03
2018-05-25T08:23:21.114Z,101187.75
2018-05-25T08:25:49.397Z,101192.45
2018-05-25T08:28:17.685Z,101188.64
2018-05-25T08:30:45.970Z,101194.97
2018-05-25T08:33:14.249Z,101193.43
2018-05-25T08:35:42.538Z,101195.59
2018-05-25T08:38:10.821Z,101196.45
2018-05-25T08:40:39.106Z,101199.11
2018-05-25T08:43:07.390Z,101199.08
2018-05-25T08:45:35.688Z,101200.11
2018-05-25T08:48:03.974Z,101193.16
2018-05-25T08:50:32.265Z,101193.44
2018-05-25T08:53:00.562Z,101194.52
2018-05-25T08:55:28.841Z,101192.84
2018-05-25T08:57:57.202Z,101195.86
2018-05-25T09:00:25.477Z,101199.44
2018-05-25T09:02:53.767Z,101185.84
2018-05-25T09:05:22.045Z,101197.29
2018-05-25T09:07:50.350Z,101192.94
2018-05-25T09:10:18.630Z,101192.81
2018-05-25T09:12:46.917Z,101180.42
2018-05-25T09:15:15.197Z,101187.00
2018-05-25T09:17:43.491Z,101181.49
2018-05-25T09:20:11.766Z,101179.50
2018-05-25T09:22:40.075Z,101187.34
2018-05-25T09:25:08.357Z,101186.88
2018-05-25T09:27:36.642Z,101190.60
2018-05-25T09:30:04.933Z,101181.69
2018-05-25T09:32:33.206Z,101184.07
2018-05-25T09:35:01.503Z,101183.39
2018-05-25T09:37:29.790Z,101186.09
2018-05-25T09:39:58.089Z,101179.30
2018-05-25T09:42:26.368Z,101180.94
2018-05-25T09:44:54.658Z,101181.98
2018-05-25T09:47:22.933Z,101180.48
2018-05-25T09:49:51.225Z,101184.36
2018-05-25T09:52:19.509Z,101188.55
2018-05-25T09:54:47.801Z,101194.02
2018-05-25T09:57:16.086Z,101187.02
2018-05-25T09:59:44.708Z,101191.66
2018-05-25T10:02:12.988Z,101183.23
2018-05-25T10:04:41.269Z,101175.82
2018-05-25T10:07:09.553Z,101180.64
2018-05-25T10:09:37.826Z,101182.56
2018-05-25T10:12:06.109Z,101185.09
2018-05-25T10:14:34.402Z,101178.25
2018-05-25T10:17:02.709Z,101175.52
2018-05-25T10:19:30.993Z,101180.42
2018-05-25T10:21:59.630Z,101174.65
2018-05-25T10:24:27.909Z,101167.86
2018-05-25T10:26:56.190Z,101170.76
2018-05-25T10:29:24.477Z,101167.17
2018-05-25T10:31:52.754Z,101162.93
2018-05-25T10:34:21.037Z,101163.59
2018-05-25T10:36:49.322Z,101159.81
2018-05-25T10:39:17.613Z,101157.20
2018-05-25T10:41:45.925Z,101157.98
2018-05-25T10:44:14.206Z,101161.80
2018-05-25T10:46:42.509Z,101153.62
2018-05-25T10:49:10.798Z,101151.13
2018-05-25T10:51:39.078Z,101153.62
2018-05-25T10:54:07.387Z,101144.05
2018-05-25T10:56:35.657Z,101144.58
2018-05-25T10:59:03.947Z,101152.58
2018-05-25T11:01:32.247Z,101143.47
2018-05-25T11:04:00.527Z,101139.63
2018-05-25T11:06:28.818Z,101139.63
2018-05-25T11:08:57.109Z,101136.92
2018-05-25T11:11:25.378Z,101140.45
2018-05-25T11:13:53.662Z,101135.84
2018-05-25T11:16:21.977Z,101131.97
2018-05-25T11:18:50.258Z,101132.70
2018-05-25T11:21:18.538Z,101131.58
2018-05-25T11:23:46.821Z,101117.73
2018-05-25T11:26:15.111Z,101124.73
2018-05-25T11:28:43.388Z,101122.04
2018-05-25T11:31:11.678Z,101117.89
2018-05-25T11:33:39.994Z,101125.66
2018-05-25T11:36:08.329Z,101116.27
2018-05-25T11:38:36.610Z,101120.67
2018-05-25T11:41:04.881Z,101116.95
2018-05-25T11:43:33.154Z,101117.83
2018-05-25T11:46:01.442Z,101117.15
2018-05-25T11:48:29.719Z,101112.97
2018-05-25T11:50:58.309Z,101117.16
2018-05-25T11:53:26.601Z,101111.83
2018-05-25T11:55:54.865Z,101114.30
2018-05-25T11:58:23.158Z,101100.11
2018-05-25T12:00:51.438Z,101095.52
2018-05-25T12:03:19.706Z,101095.83
2018-05-25T12:05:47.973Z,101101.54
2018-05-25T12:08:16.284Z,101103.52
2018-05-25T12:10:44.545Z,101092.22
2018-05-25T12:13:12.817Z,101096.66
2018-05-25T12:15:41.107Z,101095.39
2018-05-25T12:18:09.381Z,101101.52
2018-05-25T12:20:37.657Z,101096.41
2018-05-25T12:23:05.951Z,101092.52
2018-05-25T12:25:34.229Z,101095.95
2018-05-25T12:28:02.527Z,101093.99
2018-05-25T12:30:30.804Z,101097.13
2018-05-25T12:32:59.081Z,101102.22
2018-05-25T12:35:27.349Z,101099.62
2018-05-25T12:37:55.658Z,101109.86
2018-05-25T12:40:23.932Z,101097.19
2018-05-25T12:42:52.198Z,101107.05
2018-05-25T12:45:20.522Z,101095.70
2018-05-25T12:47:48.813Z,101102.61
2018-05-25T12:50:17.085Z,101099.50
2018-05-25T12:52:45.366Z,101110.61
2018-05-25T12:55:13.642Z,101099.97
2018-05-25T12:57:41.965Z,101104.42
2018-05-25T13:00:10.233Z,101101.92
2018-05-25T13:02:38.517Z,101102.48
2018-05-25T13:05:06.797Z,101099.48
2018-05-25T13:07:35.069Z,101095.25
2018-05-25T13:10:03.334Z,101094.81
2018-05-25T13:12:31.623Z,101094.75
2018-05-25T13:14:59.894Z,101092.36
2018-05-25T13:17:28.202Z,101086.53
2018-05-25T13:19:56.497Z,101096.77
2018-05-25T13:22:24.982Z,101087.81
2018-05-25T13:24:53.249Z,101083.88
2018-05-25T13:27:21.542Z,101077.75
2018-05-25T13:29:49.837Z,101083.47
2018-05-25T13:32:18.113Z,101079.67
2018-05-25T13:34:46.405Z,101077.52
2018-05-25T13:37:14.662Z,101080.66
2018-05-25T13:39:42.947Z,101080.86
2018-05-25T13:42:11.222Z,101082.06
2018-05-25T13:44:39.498Z,101075.83
2018-05-25T13:47:07.782Z,101075.84
2018-05-25T13:49:36.057Z,101070.18
2018-05-25T13:52:04.487Z,101073.89
2018-05-25T13:54:32.738Z,101071.66
2018-05-25T13:57:01.010Z,101065.07
2018-05-25T13:59:29.375Z,101072.09
2018-05-25T14:01:57.641Z,101073.42
2018-05-25T14:04:26.032Z,101059.80
2018-05-25T14:06:54.322Z,101062.11
2018-05-25T14:09:22.594Z,101058.67
2018-05-25T14:11:50.890Z,101067.45
2018-05-25T14:14:19.174Z,101063.66
2018-05-25T14:16:47.438Z,101071.55
2018-05-25T14:19:15.726Z,101065.44
2018-05-25T14:21:44.044Z,101062.03
2018-05-25T14:24:12.278Z,101071.11
2018-05-25T14:26:40.557Z,101069.45
2018-05-25T14:29:09.057Z,101072.31
2018-05-25T14:31:37.333Z,101074.35
2018-05-25T14:34:05.614Z,101068.08
2018-05-25T14:36:33.885Z,101075.05
2018-05-25T14:39:02.150Z,101070.45
2018-05-25T14:41:30.449Z,101069.61
2018-05-25T14:43:58.717Z,101072.67
2018-05-25T14:46:26.993Z,101069.77
2018-05-25T14:48:55.294Z,101071.97
2018-05-25T14:51:23.565Z,101068.21
2018-05-25T14:53:51.836Z,101069.31
2018-05-25T14:56:20.133Z,101063.20
2018-05-25T14:58:48.408Z,101065.75
2018-05-25T15:01:16.673Z,101061.25
2018-05-25T15:03:44.965Z,101068.41
2018-05-25T15:09:10.412Z,101062.28
2018-05-25T15:11:38.673Z,101058.78
2018-05-25T15:14:06.943Z,101056.61
2018-05-25T15:16:35.229Z,101060.84
2018-05-25T15:19:03.502Z,101061.16
2018-05-25T15:21:31.773Z,101060.67
2018-05-25T15:24:00.054Z,101061.69
2018-05-25T15:26:28.321Z,101060.15
2018-05-25T15:28:56.597Z,101049.53
2018-05-25T15:31:24.888Z,101049.89
2018-05-25T15:33:53.160Z,101042.80
2018-05-25T15:36:21.421Z,101043.68
2018-05-25T15:38:49.707Z,101046.03
2018-05-25T15:41:17.980Z,101049.18
2018-05-25T15:43:46.247Z,101045.09
2018-05-25T15:48:50.635Z,101036.22
2018-05-25T15:51:18.893Z,101035.15
2018-05-25T15:53:47.161Z,101036.48
2018-05-25T15:56:15.445Z,101035.75
2018-05-25T15:58:43.711Z,101034.67
2018-05-25T16:01:11.981Z,101028.92
2018-05-25T16:03:40.312Z,101033.98
2018-05-25T16:06:08.580Z,101024.52
2018-05-25T16:08:36.850Z,101024.47
2018-05-25T16:11:05.134Z,101024.48
2018-05-25T16:13:34.378Z,101023.10
2018-05-25T16:16:02.654Z,101025.67
2018-05-25T16:18:30.930Z,101026.98
2018-05-25T16:20:59.204Z,101024.69
2018-05-25T16:23:27.472Z,101019.84
2018-05-25T16:25:55.755Z,101016.16
2018-05-25T16:28:25.018Z,101014.78
2018-05-25T16:30:53.327Z,101010.16
2018-05-25T16:33:21.575Z,101014.13
2018-05-25T16:35:50.375Z,101010.42
2018-05-25T16:38:18.657Z,101007.80
2018-05-25T16:40:46.934Z,101006.41
2018-05-25T16:43:15.210Z,101011.22
2018-05-25T16:45:43.478Z,101005.09
2018-05-25T16:48:11.753Z,101007.74
2018-05-25T16:50:40.028Z,101002.42
2018-05-25T16:53:08.309Z,101007.88
2018-05-25T16:55:36.579Z,101001.51
2018-05-25T16:58:04.857Z,101009.39
2018-05-25T17:00:33.125Z,101004.40
2018-05-25T17:03:01.402Z,101012.33
2018-05-25T17:05:29.678Z,101011.29
2018-05-25T17:07:58.225Z,101007.44
2018-05-25T17:10:26.528Z,101005.72
2018-05-25T17:12:54.848Z,101007.97
2018-05-25T17:15:23.090Z,101005.92
2018-05-25T17:17:51.370Z,101013.77
2018-05-25T17:20:19.650Z,101010.11
2018-05-25T17:22:47.923Z,101010.67
2018-05-25T17:25:16.242Z,101005.34
2018-05-25T17:27:44.513Z,101011.03
2018-05-25T17:30:12.796Z,101016.40
2018-05-25T17:32:41.062Z,101014.13
2018-05-25T17:35:09.340Z,101014.52
2018-05-25T17:37:38.298Z,101008.44
2018-05-25T17:40:06.606Z,101011.97
2018-05-25T17:42:34.878Z,101024.98
2018-05-25T17:45:03.170Z,101020.31
2018-05-25T17:47:31.437Z,101029.13
2018-05-25T17:49:59.713Z,101021.94
2018-05-25T17:52:27.979Z,101023.59
2018-05-25T17:54:56.278Z,101016.60
2018-05-25T17:57:24.542Z,101018.12
2018-05-25T17:59:52.826Z,101027.98
2018-05-25T18:02:21.869Z,101038.19
2018-05-25T18:04:50.138Z,101032.81
2018-05-25T18:07:18.442Z,101035.94
2018-05-25T18:09:46.699Z,101036.66
2018-05-25T18:12:15.027Z,101043.22
2018-05-25T18:14:43.287Z,101036.41
2018-05-25T18:17:11.558Z,101041.34
2018-05-25T18:19:39.826Z,101036.98
2018-05-25T18:22:08.127Z,101035.62
2018-05-25T18:24:36.407Z,101036.80
2018-05-25T18:27:04.776Z,101042.56
2018-05-25T18:29:33.029Z,101044.64
2018-05-25T18:32:01.301Z,101048.94
2018-05-25T18:34:29.593Z,101056.62
2018-05-25T18:36:57.867Z,101054.37
2018-05-25T18:39:26.143Z,101053.06
2018-05-25T18:41:54.412Z,101052.50
2018-05-25T18:44:22.722Z,101045.91
2018-05-25T18:46:50.998Z,101055.17
2018-05-25T18:49:19.274Z,101048.62
2018-05-25T18:51:47.561Z,101060.28
2018-05-25T18:54:27.726Z,101061.95
2018-05-25T18:56:56.002Z,101058.02
2018-05-25T18:59:24.274Z,101066.12
2018-05-25T19:01:52.566Z,101067.09
2018-05-25T19:04:20.834Z,101068.59
2018-05-25T19:06:49.153Z,101068.80
2018-05-25T19:09:17.393Z,101068.38
2018-05-25T19:11:45.698Z,101072.05
2018-05-25T19:14:13.973Z,101077.03
2018-05-25T19:16:42.341Z,101083.98
2018-05-25T19:19:10.630Z,101083.02
2018-05-25T19:21:38.940Z,101078.83
2018-05-25T19:24:07.209Z,101077.27
2018-05-25T19:26:35.499Z,101091.30
2018-05-25T19:29:03.766Z,101097.28
2018-05-25T19:31:32.036Z,101098.78
2018-05-25T19:34:00.326Z,101100.39
2018-05-25T19:36:28.598Z,101105.84
2018-05-25T19:38:56.885Z,101106.52
2018-05-25T19:41:25.174Z,101112.64
2018-05-25T19:43:53.489Z,101118.47
2018-05-25T19:46:21.819Z,101120.79
2018-05-25T19:48:50.128Z,101122.83
2018-05-25T19:51:18.377Z,101121.78
2018-05-25T19:53:46.658Z,101128.68
2018-05-25T19:56:14.931Z,101130.58
2018-05-25T19:58:43.243Z,101124.44
2018-05-25T20:01:11.494Z,101129.31
2018-05-25T20:03:39.774Z,101133.29
2018-05-25T20:06:08.073Z,101132.86
2018-05-25T20:08:36.341Z,101138.68
2018-05-25T20:11:04.622Z,101148.39
2018-05-25T20:13:32.891Z,101147.27
2018-05-25T20:16:01.176Z,101145.20
2018-05-25T20:18:29.442Z,101139.88
2018-05-25T20:20:57.725Z,101144.76
2018-05-25T20:23:25.981Z,101143.73
2018-05-25T20:25:54.265Z,101141.48
2018-05-25T20:28:22.666Z,101136.44
2018-05-25T20:30:51.010Z,101133.30
2018-05-25T20:33:19.349Z,101134.80
2018-05-25T20:35:47.890Z,101139.45
2018-05-25T20:38:17.089Z,101138.45
2018-05-25T20:40:45.907Z,101141.91
2018-05-25T20:43:14.170Z,101139.32
2018-05-25T20:45:42.582Z,101138.34
2018-05-25T20:48:10.879Z,101138.62
2018-05-25T20:50:39.147Z,101141.26
2018-05-25T20:53:07.427Z,101146.23
2018-05-25T20:55:35.755Z,101139.94
2018-05-25T20:58:03.997Z,101140.64
2018-05-25T21:00:32.261Z,101143.45
2018-05-25T21:03:00.533Z,101139.33
2018-05-25T21:05:28.818Z,101139.43
2018-05-25T21:07:57.097Z,101136.70
2018-05-25T21:10:25.365Z,101143.86
2018-05-25T21:12:53.650Z,101142.36
2018-05-25T21:15:21.941Z,101144.45
2018-05-25T21:17:50.274Z,101142.30
2018-05-25T21:20:18.526Z,101146.63
2018-05-25T21:22:47.706Z,101141.01
2018-05-25T21:25:16.000Z,101143.70
2018-05-25T21:27:44.279Z,101139.86
2018-05-25T21:30:12.559Z,101130.14
2018-05-25T21:32:41.759Z,101137.80
2018-05-25T21:35:10.046Z,101142.44
2018-05-25T21:37:38.306Z,101151.69
2018-05-25T21:40:06.583Z,101151.01
2018-05-25T21:42:34.874Z,101152.09
2018-05-25T21:45:03.130Z,101157.54
2018-05-25T21:47:31.417Z,101155.08
2018-05-25T21:49:59.696Z,101157.18
2018-05-25T21:52:27.981Z,101163.58
2018-05-25T21:54:56.249Z,101163.35
2018-05-25T21:57:24.547Z,101170.52
2018-05-25T21:59:52.814Z,101171.97
2018-05-25T22:02:21.125Z,101173.41
2018-05-25T22:04:49.398Z,101172.95
2018-05-25T22:07:17.681Z,101179.17
2018-05-25T22:09:45.947Z,101177.98
2018-05-25T22:12:14.233Z,101178.75
2018-05-25T22:14:42.499Z,101185.19
2018-05-25T22:17:10.768Z,101190.95
2018-05-25T22:19:39.043Z,101190.86
2018-05-25T22:22:07.310Z,101181.75
2018-05-25T22:24:35.600Z,101185.76
2018-05-25T22:27:03.870Z,101190.88
2018-05-25T22:29:32.146Z,101188.85
2018-05-25T22:32:00.426Z,101196.88
2018-05-25T22:34:28.701Z,101196.91
2018-05-25T22:36:56.969Z,101197.61
2018-05-25T22:39:25.269Z,101201.23
2018-05-25T22:41:56.881Z,101206.93
2018-05-25T22:44:36.885Z,101207.34
2018-05-25T22:47:22.770Z,101210.37
2018-05-25T22:50:08.772Z,101208.28
2018-05-25T22:52:48.064Z,101201.80
2018-05-25T22:55:16.065Z,101201.57
2018-05-25T22:57:44.338Z,101202.91
2018-05-25T23:00:12.618Z,101201.72
2018-05-25T23:02:40.894Z,101210.13
2018-05-25T23:05:09.170Z,101217.92
2018-05-25T23:07:37.457Z,101218.71
2018-05-25T23:10:05.730Z,101217.05
2018-05-25T23:12:34.018Z,101222.61
2018-05-25T23:15:02.326Z,101230.55
2018-05-25T23:17:30.609Z,101224.39
2018-05-25T23:19:58.882Z,101231.68
2018-05-25T23:22:27.249Z,101220.05
2018-05-25T23:24:55.484Z,101219.87
2018-05-25T23:27:23.766Z,101218.92
2018-05-25T23:29:52.047Z,101218.12
2018-05-25T23:32:20.325Z,101227.99
2018-05-25T23:34:48.632Z,101225.77
2018-05-25T23:37:16.920Z,101224.23
2018-05-25T23:39:45.208Z,101223.81
2018-05-25T23:42:13.488Z,101227.11
2018-05-25T23:44:41.782Z,101217.12
2018-05-25T23:47:10.052Z,101213.58
2018-05-25T23:49:38.334Z,101214.42
2018-05-25T23:52:06.614Z,101210.20
2018-05-25T23:54:34.893Z,101204.58
2018-05-25T23:57:03.178Z,101205.83
2018-05-25T23:59:31.450Z,101207.13
